Accueil
METAR-TAF:

METAR-TAF

Aéroports :

Base aérienne de Beauvechain

Beauvechain, Belgique

latitude: 50-45N, longitude: 004-46E, altitude: 105 m

Observation

Le bulletin a été fait il y a 17 minutes, à 19:55 UTC
Vent 5 kt de sud
Température 12°C
Humidité 71%
Pression 1030 hPa
Visibilité 10 km ou plus

METAR: EBBE 061955Z AUTO 18005KT 9999 NCD 12/07 Q1030 BLU

Heure: 22:12 (20:12 UTC)

Prévision

Le bulletin a été fait il y a 4 heures et 31 minutes, à 15:41 UTC
Prévision valable du 06 à 19 UTC au 07 à 07 UTC
Vent 6 kt de sud/sud-ouest
Quelques nuages à une hauteur de 4000 ft
Temporairement
du 06 à 22 UTC au 07 à 03 UTC
Vent 3 kt de direction variable

TAF: EBBE 061541Z 0619/0707 21006KT FEW040 TEMPO 0622/0703 VRB03KT

Observations et prévisions météorologiques de plus de 4000 aéroports (messages METAR et TAF).

Les stations disponibles sont représentées par des disques jaunes et rouges sur la carte.

Passer la souris dessus pour voir le nom de la station.

Cliquer dessus pour voir les observations et prévisions météorologiques.

Pour changer de carte: cliquez sur les boutons verts avec une croix noire pour zoomer, sur le bouton vert avec un tiret pour effectuer un zoom arrière, ou sur les flèches vertes pour les cartes adjacentes.


METAR-TAF: